sensor_id;sensor_type;location;lat;lon;timestamp;temperature;humidity
4910;DHT22;2470;49.868;8.660;2023-11-21T00:00:55;10.50;99.90
4910;DHT22;2470;49.868;8.660;2023-11-21T00:03:20;10.40;99.90
4910;DHT22;2470;49.868;8.660;2023-11-21T00:05:48;10.40;99.90
4910;DHT22;2470;49.868;8.660;2023-11-21T00:08:14;10.40;99.90
4910;DHT22;2470;49.868;8.660;2023-11-21T00:10:40;10.50;99.90
4910;DHT22;2470;49.868;8.660;2023-11-21T00:13:05;10.50;99.90
4910;DHT22;2470;49.868;8.660;2023-11-21T00:15:31;10.50;99.90
4910;DHT22;2470;49.868;8.660;2023-11-21T00:17:56;10.50;99.90
4910;DHT22;2470;49.868;8.660;2023-11-21T00:20:22;10.50;99.90
4910;DHT22;2470;49.868;8.660;2023-11-21T00:22:47;10.40;99.90
4910;DHT22;2470;49.868;8.660;2023-11-21T00:25:13;10.40;99.90
4910;DHT22;2470;49.868;8.660;2023-11-21T00:27:41;10.40;99.90
4910;DHT22;2470;49.868;8.660;2023-11-21T00:30:07;10.40;99.90
4910;DHT22;2470;49.868;8.660;2023-11-21T00:32:36;10.30;99.90
4910;DHT22;2470;49.868;8.660;2023-11-21T00:35:02;10.30;99.90
4910;DHT22;2470;49.868;8.660;2023-11-21T00:37:27;10.30;99.90
4910;DHT22;2470;49.868;8.660;2023-11-21T00:39:53;10.30;99.90
4910;DHT22;2470;49.868;8.660;2023-11-21T00:42:18;10.30;99.90
4910;DHT22;2470;49.868;8.660;2023-11-21T00:44:44;10.20;99.90
4910;DHT22;2470;49.868;8.660;2023-11-21T00:47:10;10.20;99.90
4910;DHT22;2470;49.868;8.660;2023-11-21T00:49:35;10.30;99.90
4910;DHT22;2470;49.868;8.660;2023-11-21T00:52:01;10.30;99.90
4910;DHT22;2470;49.868;8.660;2023-11-21T00:54:28;10.30;99.90
4910;DHT22;2470;49.868;8.660;2023-11-21T00:56:53;10.30;99.90
4910;DHT22;2470;49.868;8.660;2023-11-21T00:59:19;10.30;99.90
4910;DHT22;2470;49.868;8.660;2023-11-21T01:01:44;10.30;99.90
4910;DHT22;2470;49.868;8.660;2023-11-21T01:04:10;10.30;99.90
4910;DHT22;2470;49.868;8.660;2023-11-21T01:06:36;10.30;99.90
4910;DHT22;2470;49.868;8.660;2023-11-21T01:09:01;10.30;99.90
4910;DHT22;2470;49.868;8.660;2023-11-21T01:11:33;10.30;99.90
4910;DHT22;2470;49.868;8.660;2023-11-21T01:14:01;10.30;99.90
4910;DHT22;2470;49.868;8.660;2023-11-21T01:16:28;10.30;99.90
4910;DHT22;2470;49.868;8.660;2023-11-21T01:18:54;10.30;99.90
4910;DHT22;2470;49.868;8.660;2023-11-21T01:21:19;10.30;99.90
4910;DHT22;2470;49.868;8.660;2023-11-21T01:23:45;10.30;99.90
4910;DHT22;2470;49.868;8.660;2023-11-21T01:26:11;10.30;99.90
4910;DHT22;2470;49.868;8.660;2023-11-21T01:28:36;10.30;99.90
4910;DHT22;2470;49.868;8.660;2023-11-21T01:31:02;10.30;99.90
4910;DHT22;2470;49.868;8.660;2023-11-21T01:33:28;10.30;99.90
4910;DHT22;2470;49.868;8.660;2023-11-21T01:35:53;10.20;99.90
4910;DHT22;2470;49.868;8.660;2023-11-21T01:38:20;10.20;99.90
4910;DHT22;2470;49.868;8.660;2023-11-21T01:40:45;10.20;99.90
4910;DHT22;2470;49.868;8.660;2023-11-21T01:43:11;10.20;99.90
4910;DHT22;2470;49.868;8.660;2023-11-21T01:45:37;10.30;99.90
4910;DHT22;2470;49.868;8.660;2023-11-21T01:48:03;10.30;99.90
4910;DHT22;2470;49.868;8.660;2023-11-21T01:50:29;10.20;99.90
4910;DHT22;2470;49.868;8.660;2023-11-21T01:52:55;10.30;99.90
4910;DHT22;2470;49.868;8.660;2023-11-21T01:55:21;10.30;99.90
4910;DHT22;2470;49.868;8.660;2023-11-21T01:57:46;10.30;99.90
4910;DHT22;2470;49.868;8.660;2023-11-21T02:00:13;10.30;99.90
4910;DHT22;2470;49.868;8.660;2023-11-21T02:02:45;10.30;99.90
4910;DHT22;2470;49.868;8.660;2023-11-21T02:05:12;10.30;99.90
4910;DHT22;2470;49.868;8.660;2023-11-21T02:07:39;10.30;99.90
4910;DHT22;2470;49.868;8.660;2023-11-21T02:10:06;10.40;99.90
4910;DHT22;2470;49.868;8.660;2023-11-21T02:12:32;10.30;99.90
4910;DHT22;2470;49.868;8.660;2023-11-21T02:14:58;10.40;99.90
4910;DHT22;2470;49.868;8.660;2023-11-21T02:17:23;10.40;99.90
4910;DHT22;2470;49.868;8.660;2023-11-21T02:19:49;10.40;99.90
4910;DHT22;2470;49.868;8.660;2023-11-21T02:22:17;10.30;99.90
4910;DHT22;2470;49.868;8.660;2023-11-21T02:24:45;10.30;99.90
4910;DHT22;2470;49.868;8.660;2023-11-21T02:27:12;10.30;99.90
4910;DHT22;2470;49.868;8.660;2023-11-21T02:29:38;10.30;99.90
4910;DHT22;2470;49.868;8.660;2023-11-21T02:32:04;10.30;99.90
4910;DHT22;2470;49.868;8.660;2023-11-21T02:34:29;10.30;99.90
4910;DHT22;2470;49.868;8.660;2023-11-21T02:36:55;10.30;99.90
4910;DHT22;2470;49.868;8.660;2023-11-21T02:39:20;10.30;99.90
4910;DHT22;2470;49.868;8.660;2023-11-21T02:41:47;10.30;99.90
4910;DHT22;2470;49.868;8.660;2023-11-21T02:44:13;10.30;99.90
4910;DHT22;2470;49.868;8.660;2023-11-21T02:46:38;10.30;99.90
4910;DHT22;2470;49.868;8.660;2023-11-21T02:49:05;10.30;99.90
4910;DHT22;2470;49.868;8.660;2023-11-21T02:51:36;10.40;99.90
4910;DHT22;2470;49.868;8.660;2023-11-21T02:54:03;10.40;99.90
4910;DHT22;2470;49.868;8.660;2023-11-21T02:56:32;10.40;99.90
4910;DHT22;2470;49.868;8.660;2023-11-21T02:58:59;10.40;99.90
4910;DHT22;2470;49.868;8.660;2023-11-21T03:01:25;10.40;99.90
4910;DHT22;2470;49.868;8.660;2023-11-21T03:03:51;10.40;99.90
4910;DHT22;2470;49.868;8.660;2023-11-21T03:06:20;10.40;99.90
4910;DHT22;2470;49.868;8.660;2023-11-21T03:08:46;10.40;99.90
4910;DHT22;2470;49.868;8.660;2023-11-21T03:11:12;10.40;99.90
4910;DHT22;2470;49.868;8.660;2023-11-21T03:13:41;10.50;99.90
4910;DHT22;2470;49.868;8.660;2023-11-21T03:16:10;10.50;99.90
4910;DHT22;2470;49.868;8.660;2023-11-21T03:18:39;10.40;99.90
4910;DHT22;2470;49.868;8.660;2023-11-21T03:21:05;10.40;99.90
4910;DHT22;2470;49.868;8.660;2023-11-21T03:23:31;10.40;99.90
4910;DHT22;2470;49.868;8.660;2023-11-21T03:25:57;10.50;99.90
4910;DHT22;2470;49.868;8.660;2023-11-21T03:28:23;10.50;99.90
4910;DHT22;2470;49.868;8.660;2023-11-21T03:30:49;10.50;99.90
4910;DHT22;2470;49.868;8.660;2023-11-21T03:33:14;10.50;99.90
4910;DHT22;2470;49.868;8.660;2023-11-21T03:35:40;10.50;99.90
4910;DHT22;2470;49.868;8.660;2023-11-21T03:38:07;10.50;99.90
4910;DHT22;2470;49.868;8.660;2023-11-21T03:40:33;10.50;99.90
4910;DHT22;2470;49.868;8.660;2023-11-21T03:42:58;10.50;99.90
4910;DHT22;2470;49.868;8.660;2023-11-21T03:45:24;10.50;99.90
4910;DHT22;2470;49.868;8.660;2023-11-21T03:47:50;10.50;99.90
4910;DHT22;2470;49.868;8.660;2023-11-21T03:50:15;10.50;99.90
4910;DHT22;2470;49.868;8.660;2023-11-21T03:52:41;10.60;99.90
4910;DHT22;2470;49.868;8.660;2023-11-21T03:55:07;10.60;99.90
4910;DHT22;2470;49.868;8.660;2023-11-21T03:57:32;10.60;99.90
4910;DHT22;2470;49.868;8.660;2023-11-21T03:59:58;10.60;99.90
4910;DHT22;2470;49.868;8.660;2023-11-21T04:02:23;10.60;99.90
4910;DHT22;2470;49.868;8.660;2023-11-21T04:04:51;10.70;99.90
4910;DHT22;2470;49.868;8.660;2023-11-21T04:07:16;10.70;99.90
4910;DHT22;2470;49.868;8.660;2023-11-21T04:09:43;10.70;99.90
4910;DHT22;2470;49.868;8.660;2023-11-21T04:12:08;10.70;99.90
4910;DHT22;2470;49.868;8.660;2023-11-21T04:14:35;10.70;99.90
4910;DHT22;2470;49.868;8.660;2023-11-21T04:17:00;10.70;99.90
4910;DHT22;2470;49.868;8.660;2023-11-21T04:19:26;10.70;99.90
4910;DHT22;2470;49.868;8.660;2023-11-21T04:21:51;10.70;99.90
4910;DHT22;2470;49.868;8.660;2023-11-21T04:24:17;10.80;99.90
4910;DHT22;2470;49.868;8.660;2023-11-21T04:26:43;10.80;99.90
4910;DHT22;2470;49.868;8.660;2023-11-21T04:29:09;10.80;99.90
4910;DHT22;2470;49.868;8.660;2023-11-21T04:31:34;10.80;99.90
4910;DHT22;2470;49.868;8.660;2023-11-21T04:34:00;10.90;99.90
4910;DHT22;2470;49.868;8.660;2023-11-21T04:36:25;10.90;99.90
4910;DHT22;2470;49.868;8.660;2023-11-21T04:38:51;10.90;99.90
4910;DHT22;2470;49.868;8.660;2023-11-21T04:41:16;10.90;99.90
4910;DHT22;2470;49.868;8.660;2023-11-21T04:43:43;11.00;99.90
4910;DHT22;2470;49.868;8.660;2023-11-21T04:46:09;11.00;99.90
4910;DHT22;2470;49.868;8.660;2023-11-21T04:48:34;11.00;99.90
4910;DHT22;2470;49.868;8.660;2023-11-21T04:51:00;11.00;99.90
4910;DHT22;2470;49.868;8.660;2023-11-21T04:53:25;11.00;99.90
4910;DHT22;2470;49.868;8.660;2023-11-21T04:55:51;11.00;99.90
4910;DHT22;2470;49.868;8.660;2023-11-21T04:58:16;11.00;99.90
4910;DHT22;2470;49.868;8.660;2023-11-21T05:00:42;11.00;99.90
4910;DHT22;2470;49.868;8.660;2023-11-21T05:03:07;11.00;99.90
4910;DHT22;2470;49.868;8.660;2023-11-21T05:05:33;11.00;99.90
4910;DHT22;2470;49.868;8.660;2023-11-21T05:08:02;11.00;99.90
4910;DHT22;2470;49.868;8.660;2023-11-21T05:10:28;11.00;99.90
4910;DHT22;2470;49.868;8.660;2023-11-21T05:12:54;11.00;99.90
4910;DHT22;2470;49.868;8.660;2023-11-21T05:15:21;11.00;99.90
4910;DHT22;2470;49.868;8.660;2023-11-21T05:17:47;11.00;99.90
4910;DHT22;2470;49.868;8.660;2023-11-21T05:20:16;11.00;99.90
4910;DHT22;2470;49.868;8.660;2023-11-21T05:22:49;11.00;99.90
4910;DHT22;2470;49.868;8.660;2023-11-21T05:25:14;10.90;99.90
4910;DHT22;2470;49.868;8.660;2023-11-21T05:27:40;10.90;99.90
4910;DHT22;2470;49.868;8.660;2023-11-21T05:30:06;10.90;99.90
4910;DHT22;2470;49.868;8.660;2023-11-21T05:32:35;10.90;99.90
4910;DHT22;2470;49.868;8.660;2023-11-21T05:35:00;10.90;99.90
4910;DHT22;2470;49.868;8.660;2023-11-21T05:37:26;10.90;99.90
4910;DHT22;2470;49.868;8.660;2023-11-21T05:39:53;10.90;99.90
4910;DHT22;2470;49.868;8.660;2023-11-21T05:42:19;10.90;99.90
4910;DHT22;2470;49.868;8.660;2023-11-21T05:44:46;10.90;99.90
4910;DHT22;2470;49.868;8.660;2023-11-21T05:47:11;10.90;99.90
4910;DHT22;2470;49.868;8.660;2023-11-21T05:49:38;10.80;99.90
4910;DHT22;2470;49.868;8.660;2023-11-21T05:52:04;10.80;99.90
4910;DHT22;2470;49.868;8.660;2023-11-21T05:54:30;10.80;99.90
4910;DHT22;2470;49.868;8.660;2023-11-21T05:56:56;10.80;99.90
4910;DHT22;2470;49.868;8.660;2023-11-21T05:59:22;10.80;99.90
4910;DHT22;2470;49.868;8.660;2023-11-21T06:01:47;10.70;99.90
4910;DHT22;2470;49.868;8.660;2023-11-21T06:04:13;10.70;99.90
4910;DHT22;2470;49.868;8.660;2023-11-21T06:06:39;10.70;99.90
4910;DHT22;2470;49.868;8.660;2023-11-21T06:09:04;10.70;99.90
4910;DHT22;2470;49.868;8.660;2023-11-21T06:11:31;10.70;99.90
4910;DHT22;2470;49.868;8.660;2023-11-21T06:13:57;10.70;99.90
4910;DHT22;2470;49.868;8.660;2023-11-21T06:16:23;10.70;99.90
4910;DHT22;2470;49.868;8.660;2023-11-21T06:18:49;10.70;99.90
4910;DHT22;2470;49.868;8.660;2023-11-21T06:21:15;10.70;99.90
4910;DHT22;2470;49.868;8.660;2023-11-21T06:23:42;10.70;99.90
4910;DHT22;2470;49.868;8.660;2023-11-21T06:26:07;10.70;99.90
4910;DHT22;2470;49.868;8.660;2023-11-21T06:28:34;10.70;99.90
4910;DHT22;2470;49.868;8.660;2023-11-21T06:31:00;10.70;99.90
4910;DHT22;2470;49.868;8.660;2023-11-21T06:33:31;10.60;99.90
4910;DHT22;2470;49.868;8.660;2023-11-21T06:35:56;10.70;99.90
4910;DHT22;2470;49.868;8.660;2023-11-21T06:38:22;10.70;99.90
4910;DHT22;2470;49.868;8.660;2023-11-21T06:40:47;10.70;99.90
4910;DHT22;2470;49.868;8.660;2023-11-21T06:43:13;10.70;99.90
4910;DHT22;2470;49.868;8.660;2023-11-21T06:45:39;10.70;99.90
4910;DHT22;2470;49.868;8.660;2023-11-21T06:48:05;10.70;99.90
4910;DHT22;2470;49.868;8.660;2023-11-21T06:50:30;10.70;99.90
4910;DHT22;2470;49.868;8.660;2023-11-21T06:52:56;10.70;99.90
4910;DHT22;2470;49.868;8.660;2023-11-21T06:55:21;10.70;99.90
4910;DHT22;2470;49.868;8.660;2023-11-21T06:57:47;10.70;99.90
4910;DHT22;2470;49.868;8.660;2023-11-21T07:00:15;10.70;99.90
4910;DHT22;2470;49.868;8.660;2023-11-21T07:02:43;10.70;99.90
4910;DHT22;2470;49.868;8.660;2023-11-21T07:05:08;10.70;99.90
4910;DHT22;2470;49.868;8.660;2023-11-21T07:07:34;10.60;99.90
4910;DHT22;2470;49.868;8.660;2023-11-21T07:10:01;10.70;99.90
4910;DHT22;2470;49.868;8.660;2023-11-21T07:12:29;10.70;99.90
4910;DHT22;2470;49.868;8.660;2023-11-21T07:14:55;10.70;99.90
4910;DHT22;2470;49.868;8.660;2023-11-21T07:17:21;10.70;99.90
4910;DHT22;2470;49.868;8.660;2023-11-21T07:19:48;10.70;99.90
4910;DHT22;2470;49.868;8.660;2023-11-21T07:22:15;10.80;99.90
4910;DHT22;2470;49.868;8.660;2023-11-21T07:24:48;10.80;99.90
4910;DHT22;2470;49.868;8.660;2023-11-21T07:27:13;10.70;99.90
4910;DHT22;2470;49.868;8.660;2023-11-21T07:29:39;10.80;99.90
4910;DHT22;2470;49.868;8.660;2023-11-21T07:32:05;10.80;99.90
4910;DHT22;2470;49.868;8.660;2023-11-21T07:34:31;10.80;99.90
4910;DHT22;2470;49.868;8.660;2023-11-21T07:36:56;10.80;99.90
4910;DHT22;2470;49.868;8.660;2023-11-21T07:39:22;10.80;99.90
4910;DHT22;2470;49.868;8.660;2023-11-21T07:41:47;10.70;99.90
4910;DHT22;2470;49.868;8.660;2023-11-21T07:44:16;10.80;99.90
4910;DHT22;2470;49.868;8.660;2023-11-21T07:46:42;10.70;99.90
4910;DHT22;2470;49.868;8.660;2023-11-21T07:49:08;10.80;99.90
4910;DHT22;2470;49.868;8.660;2023-11-21T07:51:34;10.80;99.90
4910;DHT22;2470;49.868;8.660;2023-11-21T07:54:00;10.80;99.90
4910;DHT22;2470;49.868;8.660;2023-11-21T07:56:26;10.80;99.90
4910;DHT22;2470;49.868;8.660;2023-11-21T07:58:51;10.80;99.90
4910;DHT22;2470;49.868;8.660;2023-11-21T08:01:17;10.90;99.90
4910;DHT22;2470;49.868;8.660;2023-11-21T08:03:42;10.90;99.90
4910;DHT22;2470;49.868;8.660;2023-11-21T08:06:09;11.00;99.90
4910;DHT22;2470;49.868;8.660;2023-11-21T08:08:35;11.00;99.90
4910;DHT22;2470;49.868;8.660;2023-11-21T08:11:00;11.10;99.90
4910;DHT22;2470;49.868;8.660;2023-11-21T08:13:28;11.10;99.90
4910;DHT22;2470;49.868;8.660;2023-11-21T08:15:54;11.10;99.90
4910;DHT22;2470;49.868;8.660;2023-11-21T08:18:21;11.10;99.90
4910;DHT22;2470;49.868;8.660;2023-11-21T08:20:46;11.10;99.90
4910;DHT22;2470;49.868;8.660;2023-11-21T08:23:17;11.10;99.90
4910;DHT22;2470;49.868;8.660;2023-11-21T08:25:46;11.10;99.90
4910;DHT22;2470;49.868;8.660;2023-11-21T08:28:13;11.10;99.90
4910;DHT22;2470;49.868;8.660;2023-11-21T08:30:41;11.20;99.90
4910;DHT22;2470;49.868;8.660;2023-11-21T08:33:07;11.10;99.90
4910;DHT22;2470;49.868;8.660;2023-11-21T08:35:34;11.20;99.90
4910;DHT22;2470;49.868;8.660;2023-11-21T08:38:00;11.20;99.90
4910;DHT22;2470;49.868;8.660;2023-11-21T08:40:26;11.20;99.90
4910;DHT22;2470;49.868;8.660;2023-11-21T08:42:51;11.20;99.90
4910;DHT22;2470;49.868;8.660;2023-11-21T08:45:21;11.20;99.90
4910;DHT22;2470;49.868;8.660;2023-11-21T08:47:47;11.20;99.90
4910;DHT22;2470;49.868;8.660;2023-11-21T08:50:13;11.20;99.90
4910;DHT22;2470;49.868;8.660;2023-11-21T08:52:39;11.20;99.90
4910;DHT22;2470;49.868;8.660;2023-11-21T08:55:06;11.20;99.90
4910;DHT22;2470;49.868;8.660;2023-11-21T08:57:40;11.30;99.90
4910;DHT22;2470;49.868;8.660;2023-11-21T09:00:07;11.30;99.90
4910;DHT22;2470;49.868;8.660;2023-11-21T09:02:39;11.30;99.90
4910;DHT22;2470;49.868;8.660;2023-11-21T09:05:08;11.30;99.90
4910;DHT22;2470;49.868;8.660;2023-11-21T09:07:34;11.40;99.90
4910;DHT22;2470;49.868;8.660;2023-11-21T09:10:00;11.50;99.90
4910;DHT22;2470;49.868;8.660;2023-11-21T09:12:26;11.50;99.90
4910;DHT22;2470;49.868;8.660;2023-11-21T09:14:51;11.50;99.90
4910;DHT22;2470;49.868;8.660;2023-11-21T09:17:17;11.50;99.90
4910;DHT22;2470;49.868;8.660;2023-11-21T09:19:43;11.50;99.90
4910;DHT22;2470;49.868;8.660;2023-11-21T09:22:17;11.40;99.90
4910;DHT22;2470;49.868;8.660;2023-11-21T09:24:43;11.40;99.90
4910;DHT22;2470;49.868;8.660;2023-11-21T09:27:09;11.40;99.90
4910;DHT22;2470;49.868;8.660;2023-11-21T09:29:35;11.40;99.90
4910;DHT22;2470;49.868;8.660;2023-11-21T09:32:00;11.40;99.90
4910;DHT22;2470;49.868;8.660;2023-11-21T09:34:26;11.40;99.90
4910;DHT22;2470;49.868;8.660;2023-11-21T09:36:52;11.50;99.90
4910;DHT22;2470;49.868;8.660;2023-11-21T09:39:18;11.40;99.90
4910;DHT22;2470;49.868;8.660;2023-11-21T09:41:49;11.50;99.90
4910;DHT22;2470;49.868;8.660;2023-11-21T09:44:25;11.50;99.90
4910;DHT22;2470;49.868;8.660;2023-11-21T09:46:54;11.50;99.90
4910;DHT22;2470;49.868;8.660;2023-11-21T09:49:23;11.60;99.90
4910;DHT22;2470;49.868;8.660;2023-11-21T09:51:51;11.60;99.90
4910;DHT22;2470;49.868;8.660;2023-11-21T09:54:19;11.70;99.90
4910;DHT22;2470;49.868;8.660;2023-11-21T09:56:46;11.70;99.90
4910;DHT22;2470;49.868;8.660;2023-11-21T09:59:15;11.70;99.90
4910;DHT22;2470;49.868;8.660;2023-11-21T10:01:41;11.80;99.90
4910;DHT22;2470;49.868;8.660;2023-11-21T10:04:10;11.80;99.90
4910;DHT22;2470;49.868;8.660;2023-11-21T10:06:40;11.90;99.90
4910;DHT22;2470;49.868;8.660;2023-11-21T10:09:12;11.90;99.90
4910;DHT22;2470;49.868;8.660;2023-11-21T10:11:42;11.80;99.90
4910;DHT22;2470;49.868;8.660;2023-11-21T10:14:10;11.90;99.90
4910;DHT22;2470;49.868;8.660;2023-11-21T10:16:38;11.90;99.90
4910;DHT22;2470;49.868;8.660;2023-11-21T10:19:05;12.00;99.90
4910;DHT22;2470;49.868;8.660;2023-11-21T10:21:32;12.10;99.90
4910;DHT22;2470;49.868;8.660;2023-11-21T10:23:59;12.10;99.90
4910;DHT22;2470;49.868;8.660;2023-11-21T10:26:27;12.10;99.90
4910;DHT22;2470;49.868;8.660;2023-11-21T10:28:57;12.30;99.90
4910;DHT22;2470;49.868;8.660;2023-11-21T10:31:23;12.30;99.90
4910;DHT22;2470;49.868;8.660;2023-11-21T10:33:52;12.40;99.90
4910;DHT22;2470;49.868;8.660;2023-11-21T10:36:27;12.50;99.90
4910;DHT22;2470;49.868;8.660;2023-11-21T10:38:53;12.60;99.90
4910;DHT22;2470;49.868;8.660;2023-11-21T10:41:20;12.70;99.90
4910;DHT22;2470;49.868;8.660;2023-11-21T10:43:46;12.80;99.90
4910;DHT22;2470;49.868;8.660;2023-11-21T10:46:13;12.90;99.90
4910;DHT22;2470;49.868;8.660;2023-11-21T10:48:43;12.90;99.90
4910;DHT22;2470;49.868;8.660;2023-11-21T10:51:09;13.00;99.90
4910;DHT22;2470;49.868;8.660;2023-11-21T10:53:42;13.10;99.90
4910;DHT22;2470;49.868;8.660;2023-11-21T10:56:09;13.20;99.90
4910;DHT22;2470;49.868;8.660;2023-11-21T10:58:43;13.20;99.90
4910;DHT22;2470;49.868;8.660;2023-11-21T11:01:09;13.30;99.90
4910;DHT22;2470;49.868;8.660;2023-11-21T11:03:39;13.30;99.90
4910;DHT22;2470;49.868;8.660;2023-11-21T11:06:07;13.20;99.90
4910;DHT22;2470;49.868;8.660;2023-11-21T11:08:40;13.10;99.90
4910;DHT22;2470;49.868;8.660;2023-11-21T11:11:07;12.90;99.90
4910;DHT22;2470;49.868;8.660;2023-11-21T11:13:33;12.70;99.90
4910;DHT22;2470;49.868;8.660;2023-11-21T11:16:00;12.60;99.90
4910;DHT22;2470;49.868;8.660;2023-11-21T11:18:32;12.50;99.90
4910;DHT22;2470;49.868;8.660;2023-11-21T11:21:27;12.50;99.90
4910;DHT22;2470;49.868;8.660;2023-11-21T11:24:04;12.60;99.90
4910;DHT22;2470;49.868;8.660;2023-11-21T11:26:42;12.60;99.90
4910;DHT22;2470;49.868;8.660;2023-11-21T11:32:21;12.80;99.90
4910;DHT22;2470;49.868;8.660;2023-11-21T11:34:56;12.80;99.90
4910;DHT22;2470;49.868;8.660;2023-11-21T11:37:25;12.90;99.90
4910;DHT22;2470;49.868;8.660;2023-11-21T11:39:51;13.10;99.90
4910;DHT22;2470;49.868;8.660;2023-11-21T11:42:17;13.20;99.90
4910;DHT22;2470;49.868;8.660;2023-11-21T11:47:24;13.70;99.90
4910;DHT22;2470;49.868;8.660;2023-11-21T11:50:07;14.00;99.90
4910;DHT22;2470;49.868;8.660;2023-11-21T11:52:37;14.50;99.90
4910;DHT22;2470;49.868;8.660;2023-11-21T11:55:07;15.00;99.90
4910;DHT22;2470;49.868;8.660;2023-11-21T11:57:35;15.40;99.90
4910;DHT22;2470;49.868;8.660;2023-11-21T12:00:21;15.60;99.90
4910;DHT22;2470;49.868;8.660;2023-11-21T12:03:08;15.60;99.90
4910;DHT22;2470;49.868;8.660;2023-11-21T12:05:35;15.50;99.90
4910;DHT22;2470;49.868;8.660;2023-11-21T12:08:04;15.40;99.90
4910;DHT22;2470;49.868;8.660;2023-11-21T12:10:32;15.40;99.90
4910;DHT22;2470;49.868;8.660;2023-11-21T12:13:05;15.40;99.90
4910;DHT22;2470;49.868;8.660;2023-11-21T12:15:33;15.30;99.90
4910;DHT22;2470;49.868;8.660;2023-11-21T12:17:59;15.20;99.90
4910;DHT22;2470;49.868;8.660;2023-11-21T12:20:25;15.10;99.90
4910;DHT22;2470;49.868;8.660;2023-11-21T12:22:53;14.90;99.90
4910;DHT22;2470;49.868;8.660;2023-11-21T12:25:27;14.80;99.90
4910;DHT22;2470;49.868;8.660;2023-11-21T12:27:54;14.80;99.90
4910;DHT22;2470;49.868;8.660;2023-11-21T12:30:21;14.80;99.90
4910;DHT22;2470;49.868;8.660;2023-11-21T12:32:52;14.80;99.90
4910;DHT22;2470;49.868;8.660;2023-11-21T12:35:19;14.70;99.90
4910;DHT22;2470;49.868;8.660;2023-11-21T12:37:45;14.60;99.90
4910;DHT22;2470;49.868;8.660;2023-11-21T12:40:12;14.60;99.90
4910;DHT22;2470;49.868;8.660;2023-11-21T12:42:45;14.50;99.90
4910;DHT22;2470;49.868;8.660;2023-11-21T12:47:41;14.40;99.90
4910;DHT22;2470;49.868;8.660;2023-11-21T12:50:07;14.30;99.90
4910;DHT22;2470;49.868;8.660;2023-11-21T12:53:01;14.20;99.90
4910;DHT22;2470;49.868;8.660;2023-11-21T12:55:25;14.10;99.90
4910;DHT22;2470;49.868;8.660;2023-11-21T12:57:52;14.00;99.90
4910;DHT22;2470;49.868;8.660;2023-11-21T13:00:26;14.00;99.90
4910;DHT22;2470;49.868;8.660;2023-11-21T13:02:56;13.90;99.90
4910;DHT22;2470;49.868;8.660;2023-11-21T13:05:30;13.80;99.90
4910;DHT22;2470;49.868;8.660;2023-11-21T13:08:02;13.80;99.90
4910;DHT22;2470;49.868;8.660;2023-11-21T13:10:30;13.80;99.90
4910;DHT22;2470;49.868;8.660;2023-11-21T13:13:05;13.70;99.90
4910;DHT22;2470;49.868;8.660;2023-11-21T13:15:33;13.70;99.90
4910;DHT22;2470;49.868;8.660;2023-11-21T13:18:00;13.70;99.90
4910;DHT22;2470;49.868;8.660;2023-11-21T13:20:26;13.70;99.90
4910;DHT22;2470;49.868;8.660;2023-11-21T13:22:55;13.70;99.90
4910;DHT22;2470;49.868;8.660;2023-11-21T13:25:28;13.70;99.90
4910;DHT22;2470;49.868;8.660;2023-11-21T13:27:58;13.70;99.90
4910;DHT22;2470;49.868;8.660;2023-11-21T13:30:27;13.70;99.90
4910;DHT22;2470;49.868;8.660;2023-11-21T13:33:05;13.70;99.90
4910;DHT22;2470;49.868;8.660;2023-11-21T13:35:37;13.70;99.90
4910;DHT22;2470;49.868;8.660;2023-11-21T13:38:14;13.80;99.90
4910;DHT22;2470;49.868;8.660;2023-11-21T13:40:46;13.80;99.90
4910;DHT22;2470;49.868;8.660;2023-11-21T13:43:17;13.70;99.90
4910;DHT22;2470;49.868;8.660;2023-11-21T13:45:49;13.70;99.90
4910;DHT22;2470;49.868;8.660;2023-11-21T13:48:21;13.70;99.90
4910;DHT22;2470;49.868;8.660;2023-11-21T13:50:53;13.60;99.90
4910;DHT22;2470;49.868;8.660;2023-11-21T13:53:24;13.60;99.90
4910;DHT22;2470;49.868;8.660;2023-11-21T13:55:54;13.60;99.90
4910;DHT22;2470;49.868;8.660;2023-11-21T13:58:20;13.50;99.90
4910;DHT22;2470;49.868;8.660;2023-11-21T14:01:00;13.50;99.90
4910;DHT22;2470;49.868;8.660;2023-11-21T14:03:27;13.50;99.90
4910;DHT22;2470;49.868;8.660;2023-11-21T14:06:05;13.50;99.90
4910;DHT22;2470;49.868;8.660;2023-11-21T14:08:40;13.40;99.90
4910;DHT22;2470;49.868;8.660;2023-11-21T14:11:07;13.40;99.90
4910;DHT22;2470;49.868;8.660;2023-11-21T14:13:32;13.30;99.90
4910;DHT22;2470;49.868;8.660;2023-11-21T14:15:59;13.30;99.90
4910;DHT22;2470;49.868;8.660;2023-11-21T14:18:28;13.10;99.90
4910;DHT22;2470;49.868;8.660;2023-11-21T14:21:04;13.10;99.90
4910;DHT22;2470;49.868;8.660;2023-11-21T14:23:31;13.00;99.90
4910;DHT22;2470;49.868;8.660;2023-11-21T14:25:56;12.90;99.90
4910;DHT22;2470;49.868;8.660;2023-11-21T14:28:23;12.90;99.90
4910;DHT22;2470;49.868;8.660;2023-11-21T14:30:49;12.80;99.90
4910;DHT22;2470;49.868;8.660;2023-11-21T14:33:14;12.70;99.90
4910;DHT22;2470;49.868;8.660;2023-11-21T14:35:42;12.70;99.90
4910;DHT22;2470;49.868;8.660;2023-11-21T14:38:08;12.60;99.90
4910;DHT22;2470;49.868;8.660;2023-11-21T14:40:35;12.60;99.90
4910;DHT22;2470;49.868;8.660;2023-11-21T14:43:04;12.60;99.90
4910;DHT22;2470;49.868;8.660;2023-11-21T14:45:33;12.50;99.90
4910;DHT22;2470;49.868;8.660;2023-11-21T14:48:00;12.40;99.90
4910;DHT22;2470;49.868;8.660;2023-11-21T14:50:33;12.40;99.90
4910;DHT22;2470;49.868;8.660;2023-11-21T14:53:14;12.30;99.90
4910;DHT22;2470;49.868;8.660;2023-11-21T14:55:40;12.20;99.90
4910;DHT22;2470;49.868;8.660;2023-11-21T14:58:20;12.20;99.90
4910;DHT22;2470;49.868;8.660;2023-11-21T15:00:58;12.20;99.90
4910;DHT22;2470;49.868;8.660;2023-11-21T15:03:25;12.10;99.90
4910;DHT22;2470;49.868;8.660;2023-11-21T15:05:57;12.10;99.90
4910;DHT22;2470;49.868;8.660;2023-11-21T15:08:23;12.10;99.90
4910;DHT22;2470;49.868;8.660;2023-11-21T15:10:57;12.00;99.90
4910;DHT22;2470;49.868;8.660;2023-11-21T15:13:23;12.00;99.90
4910;DHT22;2470;49.868;8.660;2023-11-21T15:15:50;12.00;99.90
4910;DHT22;2470;49.868;8.660;2023-11-21T15:18:16;11.90;99.90
4910;DHT22;2470;49.868;8.660;2023-11-21T15:20:41;11.90;99.90
4910;DHT22;2470;49.868;8.660;2023-11-21T15:23:08;11.80;99.90
4910;DHT22;2470;49.868;8.660;2023-11-21T15:25:34;11.80;99.90
4910;DHT22;2470;49.868;8.660;2023-11-21T15:28:01;11.80;99.90
4910;DHT22;2470;49.868;8.660;2023-11-21T15:30:26;11.80;99.90
4910;DHT22;2470;49.868;8.660;2023-11-21T15:32:52;11.80;99.90
4910;DHT22;2470;49.868;8.660;2023-11-21T15:35:22;11.70;99.90
4910;DHT22;2470;49.868;8.660;2023-11-21T15:37:47;11.70;99.90
4910;DHT22;2470;49.868;8.660;2023-11-21T15:40:13;11.70;99.90
4910;DHT22;2470;49.868;8.660;2023-11-21T15:42:40;11.70;99.90
4910;DHT22;2470;49.868;8.660;2023-11-21T15:45:06;11.70;99.90
4910;DHT22;2470;49.868;8.660;2023-11-21T15:47:33;11.60;99.90
4910;DHT22;2470;49.868;8.660;2023-11-21T15:49:59;11.60;99.90
4910;DHT22;2470;49.868;8.660;2023-11-21T15:52:25;11.50;99.90
4910;DHT22;2470;49.868;8.660;2023-11-21T15:54:50;11.50;99.90
4910;DHT22;2470;49.868;8.660;2023-11-21T15:57:16;11.50;99.90
4910;DHT22;2470;49.868;8.660;2023-11-21T15:59:43;11.50;99.90
4910;DHT22;2470;49.868;8.660;2023-11-21T16:02:10;11.50;99.90
4910;DHT22;2470;49.868;8.660;2023-11-21T16:04:37;11.50;99.90
4910;DHT22;2470;49.868;8.660;2023-11-21T16:07:04;11.50;99.90
4910;DHT22;2470;49.868;8.660;2023-11-21T16:09:31;11.50;99.90
4910;DHT22;2470;49.868;8.660;2023-11-21T16:12:01;11.40;99.90